Time;durP1;ratioP1;P1;durP2;ratioP2;P2;SDS_P1;SDS_P2;PMS_P1;PMS_P2;Temp;Humidity;BMP_temperature;BMP_pressure;BME280_temperature;BME280_humidity;BME280_pressure;Samples;Min_cycle;Max_cycle;Signal;HPM_P1;HPM_P2
2022/01/18 00:00:08;;;;;;;20.03;5.10;;;7.80;99.90;;;;;;5054390;28;20205;-73
2022/01/18 00:02:37;;;;;;;18.07;5.07;;;7.80;99.90;;;;;;5092476;28;20177;-73
2022/01/18 00:05:06;;;;;;;20.87;6.17;;;7.90;99.90;;;;;;5065439;28;20553;-74
2022/01/18 00:07:33;;;;;;;17.83;5.27;;;7.90;99.90;;;;;;5092011;28;20212;-73
2022/01/18 00:10:00;;;;;;;19.60;5.20;;;7.90;99.90;;;;;;5073479;28;20199;-73
2022/01/18 00:15:30;;;;;;;18.57;4.90;;;7.90;99.90;;;;;;5092423;28;20193;-73
2022/01/18 00:18:08;;;;;;;20.03;5.63;;;7.80;99.90;;;;;;5068025;28;20200;-73
2022/01/18 00:20:47;;;;;;;15.77;4.43;;;7.80;99.90;;;;;;5092209;28;20190;-73
2022/01/18 00:23:15;;;;;;;15.87;4.83;;;7.80;99.90;;;;;;5078171;28;20227;-73
2022/01/18 00:29:14;;;;;;;19.13;4.67;;;7.70;99.90;;;;;;5093896;28;20180;-73
2022/01/18 00:31:59;;;;;;;16.53;4.20;;;7.80;99.90;;;;;;5072984;28;20196;-73
2022/01/18 00:34:30;;;;;;;17.33;4.80;;;7.80;99.90;;;;;;5069849;28;20732;-73
2022/01/18 00:37:22;;;;;;;24.13;4.63;;;7.80;99.90;;;;;;5089578;28;20177;-73
2022/01/18 00:39:49;;;;;;;24.03;5.97;;;7.80;99.90;;;;;;5070720;28;20201;-73
2022/01/18 00:42:16;;;;;;;15.73;4.60;;;7.80;99.90;;;;;;5090766;28;20266;-73
2022/01/18 00:44:45;;;;;;;16.23;4.97;;;7.70;99.90;;;;;;5073085;28;20214;-73
2022/01/18 00:47:12;;;;;;;21.33;5.00;;;7.70;99.90;;;;;;5061114;28;20284;-73
2022/01/18 00:49:44;;;;;;;19.03;3.97;;;7.70;99.90;;;;;;5074331;28;20201;-72
2022/01/18 00:52:11;;;;;;;19.43;4.30;;;7.80;99.90;;;;;;5081621;28;20189;-73
2022/01/18 00:54:43;;;;;;;17.83;5.00;;;7.80;99.90;;;;;;5079516;28;20228;-73
2022/01/18 00:57:11;;;;;;;19.90;4.20;;;7.70;99.90;;;;;;5083020;28;20193;-73
2022/01/18 00:59:40;;;;;;;16.00;3.97;;;7.70;99.90;;;;;;5080147;28;20208;-73
2022/01/18 01:02:09;;;;;;;13.27;3.57;;;7.80;99.90;;;;;;5080056;28;20197;-73
2022/01/18 01:04:41;;;;;;;17.70;4.53;;;7.90;99.90;;;;;;5066944;28;20223;-73
2022/01/18 01:07:26;;;;;;;11.00;3.07;;;7.90;99.90;;;;;;5076377;28;20208;-73
2022/01/18 01:09:54;;;;;;;15.20;3.73;;;7.90;99.90;;;;;;5090114;28;20208;-73
2022/01/18 01:12:25;;;;;;;14.63;4.13;;;7.90;99.90;;;;;;5093591;28;20657;-73
2022/01/18 01:14:57;;;;;;;9.17;3.40;;;7.80;99.90;;;;;;5074445;28;20250;-73
2022/01/18 01:17:37;;;;;;;11.03;3.73;;;7.80;99.90;;;;;;5092018;28;20263;-73
2022/01/18 01:37:11;;;;;;;16.77;4.53;;;7.70;99.90;;;;;;5100038;27;20209;-73
2022/01/18 01:42:43;;;;;;;17.20;4.47;;;7.80;99.90;;;;;;5081393;28;20199;-72
2022/01/18 01:45:24;;;;;;;17.07;4.03;;;7.80;99.90;;;;;;5071575;28;20196;-73
2022/01/18 01:47:52;;;;;;;24.23;5.30;;;7.70;99.90;;;;;;5087023;28;20196;-72
2022/01/18 01:50:26;;;;;;;15.13;4.10;;;7.80;99.90;;;;;;5085011;28;20195;-73
2022/01/18 01:52:55;;;;;;;18.10;4.27;;;7.80;99.90;;;;;;5093784;28;20213;-72
2022/01/18 01:55:24;;;;;;;19.43;4.90;;;7.80;99.90;;;;;;5078301;28;20196;-72
2022/01/18 01:57:51;;;;;;;17.57;4.70;;;7.80;99.90;;;;;;5094015;28;20193;-72
2022/01/18 02:00:20;;;;;;;16.17;4.40;;;7.80;99.90;;;;;;5073759;28;20197;-72
2022/01/18 02:02:48;;;;;;;16.87;4.73;;;7.80;99.90;;;;;;5094175;28;20212;-73
2022/01/18 02:05:15;;;;;;;17.43;4.03;;;7.80;99.90;;;;;;5077167;28;20200;-72
2022/01/18 02:07:52;;;;;;;17.87;5.00;;;7.90;99.90;;;;;;5080885;28;20692;-72
2022/01/18 02:10:19;;;;;;;16.30;4.00;;;7.90;99.90;;;;;;5069407;28;20563;-72
2022/01/18 02:12:46;;;;;;;18.33;4.27;;;7.80;99.90;;;;;;5077390;28;20575;-72
2022/01/18 02:15:17;;;;;;;14.50;4.53;;;7.90;99.90;;;;;;5072323;28;20199;-73
2022/01/18 02:23:20;;;;;;;16.37;5.03;;;7.90;99.90;;;;;;5088616;28;20214;-72
2022/01/18 02:25:48;;;;;;;15.87;4.30;;;7.90;99.90;;;;;;5088904;28;20569;-72
2022/01/18 02:28:17;;;;;;;21.27;4.23;;;7.90;99.90;;;;;;5080038;28;20197;-72
2022/01/18 02:30:45;;;;;;;19.40;4.40;;;7.90;99.90;;;;;;5087376;28;20676;-74
2022/01/18 02:33:14;;;;;;;21.07;4.33;;;7.90;99.90;;;;;;5082635;28;20227;-72
2022/01/18 02:35:44;;;;;;;17.83;4.70;;;7.90;99.90;;;;;;5080029;28;20193;-73
2022/01/18 02:38:12;;;;;;;14.87;4.10;;;7.90;99.90;;;;;;5069644;28;20197;-72
2022/01/18 02:40:40;;;;;;;19.17;4.67;;;7.90;99.90;;;;;;5068492;28;20205;-73
2022/01/18 02:45:51;;;;;;;19.43;4.20;;;7.80;99.90;;;;;;5072754;28;20219;-72
2022/01/18 02:48:19;;;;;;;15.27;4.30;;;7.90;99.90;;;;;;5073482;28;20552;-72
2022/01/18 02:50:48;;;;;;;15.70;4.10;;;7.90;99.90;;;;;;5088419;28;20199;-73
2022/01/18 02:53:17;;;;;;;21.50;4.77;;;8.00;99.90;;;;;;5070038;28;20213;-73
2022/01/18 02:55:50;;;;;;;11.30;4.17;;;8.00;99.90;;;;;;5088201;28;20194;-73
2022/01/18 02:58:24;;;;;;;16.83;3.87;;;8.00;99.90;;;;;;5073939;28;20199;-72
2022/01/18 03:03:35;;;;;;;20.43;5.40;;;8.00;99.90;;;;;;5078874;28;20212;-73
2022/01/18 03:06:05;;;;;;;13.17;3.93;;;8.00;99.90;;;;;;5069957;28;20587;-73
2022/01/18 03:08:33;;;;;;;20.10;4.07;;;8.00;99.90;;;;;;5079814;28;20192;-73
2022/01/18 03:11:01;;;;;;;20.07;5.07;;;7.90;99.90;;;;;;5062061;28;20206;-72
2022/01/18 03:13:29;;;;;;;13.80;4.73;;;7.90;99.90;;;;;;5065476;28;20232;-73
2022/01/18 03:15:56;;;;;;;16.70;4.17;;;8.00;99.90;;;;;;5073243;28;20189;-72
2022/01/18 03:18:24;;;;;;;20.00;4.87;;;8.10;99.90;;;;;;5086063;28;20197;-72
2022/01/18 03:20:51;;;;;;;15.53;4.50;;;8.00;99.90;;;;;;5082048;28;20205;-72
2022/01/18 03:23:22;;;;;;;20.40;4.70;;;8.00;99.90;;;;;;5090708;28;20209;-73
2022/01/18 03:25:57;;;;;;;14.67;4.07;;;7.90;99.90;;;;;;5114435;27;20197;-73
2022/01/18 03:28:26;;;;;;;15.50;4.57;;;8.00;99.90;;;;;;5068003;28;20216;-72
2022/01/18 03:30:57;;;;;;;16.03;4.50;;;7.90;99.90;;;;;;5078247;28;20666;-72
2022/01/18 03:33:28;;;;;;;14.40;4.87;;;8.00;99.90;;;;;;5078520;28;20223;-73
2022/01/18 03:35:55;;;;;;;16.90;5.33;;;8.00;99.90;;;;;;5071238;28;20215;-73
2022/01/18 03:38:38;;;;;;;15.83;4.30;;;8.00;99.90;;;;;;5078274;28;20200;-73
2022/01/18 03:41:06;;;;;;;17.00;4.67;;;7.90;99.90;;;;;;5064986;28;20204;-73
2022/01/18 03:43:35;;;;;;;18.07;4.93;;;7.90;99.90;;;;;;5070062;28;20216;-73
2022/01/18 03:46:05;;;;;;;16.73;5.00;;;8.00;99.90;;;;;;5068847;28;20203;-73
2022/01/18 03:48:37;;;;;;;19.20;5.00;;;7.90;99.90;;;;;;5070078;28;20196;-72
2022/01/18 03:51:06;;;;;;;22.00;5.20;;;7.90;99.90;;;;;;5078486;28;20700;-72
2022/01/18 03:53:34;;;;;;;16.77;5.47;;;7.90;99.90;;;;;;5081400;28;20232;-73
2022/01/18 03:56:05;;;;;;;16.23;4.67;;;7.90;99.90;;;;;;5065092;28;20205;-73
2022/01/18 03:58:33;;;;;;;19.93;5.60;;;8.00;99.90;;;;;;5063058;28;20197;-73
2022/01/18 04:01:01;;;;;;;18.53;4.77;;;7.90;99.90;;;;;;5089873;28;20207;-73
2022/01/18 04:03:29;;;;;;;16.20;4.93;;;7.70;99.90;;;;;;5073228;28;20225;-73
2022/01/18 04:05:56;;;;;;;15.33;4.57;;;7.60;99.90;;;;;;5071081;28;20204;-73
2022/01/18 04:08:25;;;;;;;18.27;5.17;;;7.70;99.90;;;;;;5066383;28;20219;-73
2022/01/18 04:10:52;;;;;;;18.57;4.33;;;7.70;99.90;;;;;;5069302;28;20201;-73
2022/01/18 04:13:21;;;;;;;17.70;5.37;;;7.70;99.90;;;;;;5079969;28;20686;-73
2022/01/18 04:15:48;;;;;;;16.27;4.83;;;7.70;99.90;;;;;;5058641;28;20200;-73
2022/01/18 04:18:24;;;;;;;14.53;4.20;;;7.80;99.90;;;;;;5065540;28;20194;-73
2022/01/18 04:29:16;;;;;;;13.40;3.77;;;7.80;99.90;;;;;;5029940;28;20213;-73
2022/01/18 04:31:44;;;;;;;14.53;3.53;;;7.80;99.90;;;;;;5067421;28;20208;-73
2022/01/18 04:34:11;;;;;;;17.97;4.03;;;7.70;99.90;;;;;;5071696;28;20220;-73
2022/01/18 04:36:39;;;;;;;17.93;3.87;;;7.70;99.90;;;;;;5071371;28;20551;-73
2022/01/18 04:39:06;;;;;;;14.70;3.80;;;7.70;99.90;;;;;;5066679;28;20203;-72
2022/01/18 04:41:35;;;;;;;10.87;3.40;;;7.70;99.90;;;;;;5068634;28;20208;-73
2022/01/18 04:44:18;;;;;;;13.70;3.87;;;7.60;99.90;;;;;;5093650;28;20647;-73
2022/01/18 04:49:39;;;;;;;14.60;3.87;;;7.60;99.90;;;;;;5088249;28;20199;-73
2022/01/18 04:52:10;;;;;;;10.77;3.57;;;7.70;99.90;;;;;;5085978;28;20185;-73
2022/01/18 04:54:46;;;;;;;9.67;2.87;;;7.80;99.90;;;;;;5085158;28;20224;-73
2022/01/18 04:59:58;;;;;;;12.47;3.43;;;7.60;99.90;;;;;;5095075;28;20202;-73
2022/01/18 05:02:27;;;;;;;16.33;4.07;;;7.70;99.90;;;;;;5085599;28;20192;-73
2022/01/18 05:04:54;;;;;;;16.40;4.07;;;7.70;99.90;;;;;;5070821;28;20568;-73
2022/01/18 05:07:22;;;;;;;9.10;3.03;;;7.70;99.90;;;;;;5070177;28;20205;-73
2022/01/18 05:09:50;;;;;;;12.53;3.67;;;7.60;99.90;;;;;;5087215;28;20239;-73
2022/01/18 05:12:31;;;;;;;11.93;3.30;;;7.60;99.90;;;;;;5079631;28;20196;-73
2022/01/18 05:15:05;;;;;;;14.20;4.13;;;7.50;99.90;;;;;;5082515;28;20194;-73
2022/01/18 05:17:44;;;;;;;15.33;3.70;;;7.60;99.90;;;;;;5082807;28;20206;-73
2022/01/18 05:20:38;;;;;;;12.43;3.60;;;7.60;99.90;;;;;;5082399;28;20255;-73
2022/01/18 05:23:06;;;;;;;18.50;4.27;;;7.60;99.90;;;;;;5074912;28;20573;-73
2022/01/18 05:25:52;;;;;;;12.43;4.30;;;7.60;99.90;;;;;;5074860;28;20203;-73
2022/01/18 05:28:19;;;;;;;15.63;4.87;;;7.50;99.90;;;;;;5090408;28;20253;-73
2022/01/18 05:30:47;;;;;;;16.50;5.63;;;7.50;99.90;;;;;;5108634;27;20204;-73
2022/01/18 05:33:15;;;;;;;12.43;5.07;;;7.50;99.90;;;;;;5077251;28;20224;-73
2022/01/18 05:35:43;;;;;;;17.50;5.10;;;7.60;99.90;;;;;;5095161;28;20169;-73
2022/01/18 05:38:10;;;;;;;14.00;4.60;;;7.50;99.90;;;;;;5076971;28;20230;-73
2022/01/18 05:40:38;;;;;;;19.00;5.57;;;7.70;99.90;;;;;;5093429;28;20200;-73
2022/01/18 05:43:06;;;;;;;16.50;5.20;;;7.60;99.90;;;;;;5094718;28;20217;-73
2022/01/18 05:45:34;;;;;;;13.63;4.83;;;7.60;99.90;;;;;;5087101;28;20655;-73
2022/01/18 05:48:01;;;;;;;12.20;4.73;;;7.70;99.90;;;;;;5074489;28;20224;-73
2022/01/18 05:50:30;;;;;;;15.47;4.90;;;7.70;99.90;;;;;;5083883;28;20201;-73
2022/01/18 05:52:57;;;;;;;12.17;5.30;;;7.60;99.90;;;;;;5078375;28;20230;-77
2022/01/18 05:55:39;;;;;;;13.37;5.53;;;7.70;99.90;;;;;;5075884;28;20204;-73
2022/01/18 05:58:06;;;;;;;15.87;5.83;;;7.60;99.90;;;;;;5108033;27;20188;-73
2022/01/18 06:00:37;;;;;;;13.53;5.53;;;7.70;99.90;;;;;;5066296;28;20212;-73
2022/01/18 06:03:12;;;;;;;25.13;7.17;;;7.70;99.90;;;;;;5074791;28;20244;-72
2022/01/18 06:08:26;;;;;;;18.60;6.27;;;7.50;99.90;;;;;;5100062;28;20234;-73
2022/01/18 06:10:53;;;;;;;16.50;6.60;;;7.60;99.90;;;;;;5086367;28;20677;-73
2022/01/18 06:13:21;;;;;;;15.03;6.97;;;7.50;99.90;;;;;;5089090;28;20208;-73
2022/01/18 06:15:48;;;;;;;17.47;7.47;;;7.40;99.90;;;;;;5085807;28;20200;-72
2022/01/18 06:18:17;;;;;;;20.23;7.83;;;7.40;99.90;;;;;;5093716;28;20181;-72
2022/01/18 06:20:59;;;;;;;16.73;6.77;;;7.40;99.90;;;;;;5082911;28;20211;-72
2022/01/18 06:23:26;;;;;;;18.90;8.37;;;7.40;99.90;;;;;;5080522;28;20699;-72
2022/01/18 06:25:54;;;;;;;16.93;7.93;;;7.30;99.90;;;;;;5093649;28;20192;-73
2022/01/18 06:28:21;;;;;;;17.47;8.30;;;7.50;99.90;;;;;;5075818;28;20543;-72
2022/01/18 06:30:48;;;;;;;16.13;7.77;;;7.50;99.90;;;;;;5062682;28;20204;-72
2022/01/18 06:33:49;;;;;;;16.97;7.43;;;7.50;99.90;;;;;;5087127;28;20208;-73
2022/01/18 06:36:18;;;;;;;18.73;7.50;;;7.50;99.90;;;;;;5078380;28;20197;-72
2022/01/18 06:38:45;;;;;;;19.63;8.53;;;7.50;99.90;;;;;;5074115;28;20204;-72
2022/01/18 06:41:30;;;;;;;13.93;6.13;;;7.50;99.90;;;;;;5078119;28;20208;-72
2022/01/18 06:43:57;;;;;;;20.97;7.60;;;7.90;99.90;;;;;;5059080;28;20228;-71
2022/01/18 06:46:30;;;;;;;17.00;6.33;;;8.60;99.90;;;;;;5073165;28;20197;-73
2022/01/18 06:48:57;;;;;;;17.40;7.37;;;8.80;99.90;;;;;;5069227;28;20223;-72
2022/01/18 06:51:26;;;;;;;21.97;9.07;;;8.70;99.90;;;;;;5088824;28;20196;-73
2022/01/18 06:53:53;;;;;;;17.43;8.03;;;8.20;99.90;;;;;;5081998;28;20212;-72
2022/01/18 06:56:27;;;;;;;19.40;8.77;;;7.80;99.90;;;;;;5070267;28;20197;-74
2022/01/18 06:59:01;;;;;;;17.33;7.97;;;7.70;99.90;;;;;;5072865;28;20592;-73
2022/01/18 07:01:29;;;;;;;28.87;9.30;;;7.60;99.90;;;;;;5090615;28;20203;-73
2022/01/18 07:03:56;;;;;;;26.67;9.00;;;7.50;99.90;;;;;;5071675;28;20578;-72
2022/01/18 07:06:23;;;;;;;23.27;9.10;;;7.50;99.90;;;;;;5091999;28;20203;-72
2022/01/18 07:08:52;;;;;;;20.80;9.40;;;7.60;99.90;;;;;;5091958;28;20208;-73
2022/01/18 07:11:20;;;;;;;17.10;9.17;;;7.60;99.90;;;;;;5068382;28;20201;-72
2022/01/18 07:13:48;;;;;;;23.10;10.13;;;7.60;99.90;;;;;;5070165;28;20732;-74
2022/01/18 07:16:15;;;;;;;19.30;8.30;;;7.60;99.90;;;;;;5086924;28;20201;-73
2022/01/18 07:18:43;;;;;;;15.93;9.00;;;7.70;99.90;;;;;;5068814;28;20185;-72
2022/01/18 07:21:12;;;;;;;25.20;9.97;;;7.70;99.90;;;;;;5090397;28;20198;-73
2022/01/18 07:23:40;;;;;;;22.90;11.23;;;7.70;99.90;;;;;;5064826;28;20227;-72
2022/01/18 07:26:09;;;;;;;24.07;10.67;;;7.50;99.90;;;;;;5070032;28;20412;-73
2022/01/18 07:28:36;;;;;;;27.73;11.97;;;7.60;99.90;;;;;;5088433;28;20635;-72
2022/01/18 07:31:09;;;;;;;21.23;10.57;;;7.50;99.90;;;;;;5079527;28;20208;-72
2022/01/18 07:33:39;;;;;;;17.50;10.03;;;7.60;99.90;;;;;;5072949;28;20224;-72
2022/01/18 07:36:07;;;;;;;26.07;10.67;;;7.80;99.90;;;;;;5073450;28;20603;-73
2022/01/18 07:38:35;;;;;;;19.23;10.20;;;7.80;99.90;;;;;;5068786;28;20196;-73
2022/01/18 07:41:02;;;;;;;24.03;11.10;;;7.80;99.90;;;;;;5091189;28;20195;-73
2022/01/18 07:43:31;;;;;;;23.90;10.53;;;7.80;99.90;;;;;;5089016;28;20217;-72
2022/01/18 07:45:58;;;;;;;20.60;10.53;;;7.80;99.90;;;;;;5066459;28;20212;-72
2022/01/18 07:48:25;;;;;;;21.27;11.43;;;7.80;99.90;;;;;;5070467;28;20338;-73
2022/01/18 07:50:54;;;;;;;20.67;11.53;;;7.90;99.90;;;;;;5072764;28;20192;-72
2022/01/18 07:53:22;;;;;;;22.97;12.60;;;7.90;99.90;;;;;;5091525;28;20209;-72
2022/01/18 07:55:49;;;;;;;20.37;12.07;;;7.90;99.90;;;;;;5091556;28;20196;-72
2022/01/18 07:58:17;;;;;;;19.80;11.47;;;7.80;99.90;;;;;;5076452;28;20555;-72
2022/01/18 08:00:47;;;;;;;21.57;11.70;;;7.80;99.90;;;;;;5086633;28;20667;-72
2022/01/18 08:03:14;;;;;;;23.00;12.03;;;7.90;99.90;;;;;;5069017;28;20216;-71
2022/01/18 08:05:42;;;;;;;25.50;11.47;;;7.80;99.90;;;;;;5070779;28;20205;-73
2022/01/18 08:08:10;;;;;;;22.27;11.33;;;7.80;99.90;;;;;;5102798;28;20204;-72
2022/01/18 08:10:37;;;;;;;23.50;10.43;;;7.70;99.90;;;;;;5071034;28;20197;-72
2022/01/18 08:13:05;;;;;;;21.47;11.63;;;7.70;99.90;;;;;;5068163;28;20247;-72
2022/01/18 08:15:38;;;;;;;21.57;10.70;;;7.60;99.90;;;;;;5068059;28;20193;-73
2022/01/18 08:18:19;;;;;;;22.37;10.43;;;7.50;99.90;;;;;;5070993;28;20196;-73
2022/01/18 08:20:46;;;;;;;23.80;11.63;;;7.60;99.90;;;;;;5083398;28;20207;-74
2022/01/18 08:23:14;;;;;;;23.47;12.63;;;7.90;99.90;;;;;;5091827;28;20219;-73
2022/01/18 08:25:41;;;;;;;23.93;11.90;;;7.60;99.90;;;;;;5081514;28;20213;-73
2022/01/18 08:28:13;;;;;;;23.00;11.27;;;7.70;99.90;;;;;;5069449;28;20205;-73
2022/01/18 08:30:41;;;;;;;19.43;11.50;;;7.60;99.90;;;;;;5073678;28;20197;-73
2022/01/18 08:33:08;;;;;;;26.73;12.20;;;7.60;99.90;;;;;;5071338;28;20220;-73
2022/01/18 08:35:39;;;;;;;21.60;11.90;;;7.70;99.90;;;;;;5085110;28;20216;-73
2022/01/18 08:38:07;;;;;;;20.73;11.17;;;7.60;99.90;;;;;;5078876;28;20201;-73
2022/01/18 08:40:34;;;;;;;22.27;11.60;;;7.70;99.90;;;;;;5076964;28;20195;-73
2022/01/18 08:43:02;;;;;;;21.70;11.87;;;7.70;99.90;;;;;;5078421;28;20682;-73
2022/01/18 08:45:29;;;;;;;25.43;12.87;;;7.70;99.90;;;;;;5078297;28;20199;-73
2022/01/18 08:47:56;;;;;;;20.07;11.50;;;7.70;99.90;;;;;;5088892;28;20185;-73
2022/01/18 08:50:24;;;;;;;21.10;11.33;;;7.70;99.90;;;;;;5089242;28;20263;-73
2022/01/18 08:52:52;;;;;;;23.20;11.57;;;7.70;99.90;;;;;;5081898;28;20209;-73
2022/01/18 08:55:21;;;;;;;21.30;11.20;;;7.80;99.90;;;;;;5085519;28;20677;-73
2022/01/18 08:57:49;;;;;;;22.20;11.43;;;7.80;99.90;;;;;;5078097;28;20197;-73
2022/01/18 09:00:17;;;;;;;20.60;11.47;;;7.80;99.90;;;;;;5089701;28;20197;-73
2022/01/18 09:02:46;;;;;;;22.53;11.80;;;7.80;99.90;;;;;;5093155;28;20213;-73
2022/01/18 09:05:14;;;;;;;26.53;12.07;;;7.90;99.90;;;;;;5095648;28;20550;-73
2022/01/18 09:07:41;;;;;;;22.53;11.47;;;7.90;99.90;;;;;;5073265;28;20223;-73
2022/01/18 09:10:12;;;;;;;25.97;10.83;;;7.90;99.90;;;;;;5076585;28;20220;-72
2022/01/18 09:12:40;;;;;;;24.60;11.77;;;7.90;99.90;;;;;;5078167;28;20193;-72
2022/01/18 09:15:09;;;;;;;19.03;9.93;;;7.80;99.90;;;;;;5082796;28;20196;-73
2022/01/18 09:17:38;;;;;;;24.60;10.83;;;7.90;99.90;;;;;;5095263;28;20544;-73
2022/01/18 09:20:08;;;;;;;21.57;11.33;;;8.00;99.90;;;;;;5086394;28;20199;-72
2022/01/18 09:22:38;;;;;;;18.53;10.70;;;8.10;99.90;;;;;;5082472;28;20193;-72
2022/01/18 09:25:08;;;;;;;22.67;11.30;;;8.00;99.90;;;;;;5095550;28;20189;-73
2022/01/18 09:27:37;;;;;;;23.37;12.40;;;8.00;99.90;;;;;;5076348;28;20600;-72
2022/01/18 09:30:06;;;;;;;22.97;12.67;;;8.00;99.90;;;;;;5106417;28;20193;-73
2022/01/18 09:32:41;;;;;;;18.73;11.47;;;8.00;99.90;;;;;;5075158;28;20258;-76
2022/01/18 09:35:08;;;;;;;24.23;13.93;;;8.10;99.90;;;;;;5083718;28;20204;-73
2022/01/18 09:37:36;;;;;;;26.10;13.90;;;8.10;99.90;;;;;;5076614;28;20193;-72
2022/01/18 09:40:04;;;;;;;27.73;15.00;;;8.20;99.90;;;;;;5094157;28;20548;-73
2022/01/18 09:42:35;;;;;;;27.63;14.67;;;8.10;99.90;;;;;;5094483;28;20189;-72
2022/01/18 09:45:06;;;;;;;27.40;14.77;;;8.10;99.90;;;;;;5094880;28;20579;-72
2022/01/18 09:47:34;;;;;;;27.93;14.83;;;8.10;99.90;;;;;;5068231;28;20189;-73
2022/01/18 09:50:04;;;;;;;26.30;13.73;;;7.90;99.90;;;;;;5084915;28;20212;-73
2022/01/18 09:52:31;;;;;;;28.23;13.60;;;7.80;99.90;;;;;;5080848;28;20216;-73
2022/01/18 09:55:00;;;;;;;29.60;15.13;;;8.00;99.90;;;;;;5063278;28;20208;-72
2022/01/18 09:57:27;;;;;;;27.37;14.43;;;8.00;99.90;;;;;;5067887;28;20678;-74
2022/01/18 09:59:54;;;;;;;24.90;14.60;;;8.00;99.90;;;;;;5076719;28;20201;-73
2022/01/18 10:02:23;;;;;;;24.93;15.10;;;8.10;99.90;;;;;;5084416;28;20196;-73
2022/01/18 10:04:53;;;;;;;29.23;14.33;;;8.10;99.90;;;;;;5094133;28;20204;-73
2022/01/18 10:07:32;;;;;;;25.37;14.70;;;8.10;99.90;;;;;;5087768;28;20205;-73
2022/01/18 10:10:00;;;;;;;29.90;15.23;;;8.20;99.90;;;;;;5094661;28;20558;-73
2022/01/18 10:12:28;;;;;;;25.70;15.70;;;8.20;99.90;;;;;;5082417;28;20197;-73
2022/01/18 10:14:56;;;;;;;31.13;16.77;;;8.20;99.90;;;;;;5084008;28;20200;-73
2022/01/18 10:17:32;;;;;;;30.97;17.70;;;8.10;99.90;;;;;;5087421;28;20205;-74
2022/01/18 10:20:04;;;;;;;37.47;20.33;;;8.20;99.90;;;;;;5072726;28;20194;-73
2022/01/18 10:22:42;;;;;;;38.23;19.67;;;8.30;99.90;;;;;;5089658;28;20189;-74
2022/01/18 10:25:51;;;;;;;35.87;20.70;;;8.30;99.90;;;;;;5084119;28;20650;-73
2022/01/18 10:28:29;;;;;;;39.40;21.10;;;8.00;99.90;;;;;;5085690;28;20204;-74
2022/01/18 10:31:00;;;;;;;37.53;22.33;;;8.10;99.90;;;;;;5078625;28;20686;-74
2022/01/18 10:33:35;;;;;;;39.47;22.27;;;8.20;99.90;;;;;;5093546;28;20575;-72
2022/01/18 10:36:07;;;;;;;39.50;22.40;;;8.20;99.90;;;;;;5093915;28;20184;-73
2022/01/18 10:38:35;;;;;;;40.13;21.20;;;8.20;99.90;;;;;;5069534;28;20197;-73
2022/01/18 10:41:27;;;;;;;41.90;21.40;;;8.20;99.90;;;;;;5068172;28;20192;-73
2022/01/18 10:44:28;;;;;;;41.67;22.60;;;8.00;99.90;;;;;;5061890;28;20220;-75
2022/01/18 10:46:58;;;;;;;44.27;22.77;;;7.90;99.90;;;;;;5078644;28;20197;-74
2022/01/18 10:49:30;;;;;;;43.97;21.43;;;8.10;99.90;;;;;;5090630;28;20551;-76
2022/01/18 10:52:00;;;;;;;41.47;22.73;;;8.40;99.90;;;;;;5061272;28;20202;-77
2022/01/18 10:54:40;;;;;;;48.63;25.37;;;8.40;99.90;;;;;;5067506;28;20224;-73
2022/01/18 10:57:11;;;;;;;43.30;23.53;;;8.40;99.90;;;;;;5095407;28;20208;-74
2022/01/18 10:59:40;;;;;;;41.23;23.33;;;8.70;99.90;;;;;;5070476;28;20208;-75
2022/01/18 11:02:13;;;;;;;38.77;19.87;;;8.80;99.90;;;;;;5065811;28;20198;-73
2022/01/18 11:04:43;;;;;;;34.90;19.87;;;8.90;99.90;;;;;;5087061;28;20228;-75
2022/01/18 11:07:11;;;;;;;40.67;21.87;;;9.10;99.90;;;;;;5081063;28;20193;-73
2022/01/18 11:09:40;;;;;;;34.03;21.13;;;9.00;99.90;;;;;;5086883;28;20208;-73
2022/01/18 11:12:09;;;;;;;34.53;21.10;;;9.00;99.90;;;;;;5061802;28;20197;-74
2022/01/18 11:14:39;;;;;;;37.60;20.33;;;9.30;99.90;;;;;;5064409;28;20224;-74
2022/01/18 11:17:08;;;;;;;33.37;18.83;;;9.60;99.90;;;;;;5095993;27;20198;-75
2022/01/18 11:19:38;;;;;;;32.17;16.93;;;10.20;99.90;;;;;;5070877;28;20201;-74
2022/01/18 11:22:13;;;;;;;32.70;18.03;;;11.20;99.90;;;;;;5069325;28;20197;-73
2022/01/18 11:24:43;;;;;;;32.57;19.30;;;10.80;99.90;;;;;;5065422;28;20225;-72
2022/01/18 11:27:14;;;;;;;36.27;20.47;;;10.50;99.90;;;;;;5083097;28;20193;-73
2022/01/18 11:29:42;;;;;;;31.47;19.60;;;10.30;99.90;;;;;;5088519;28;20197;-73
2022/01/18 11:32:11;;;;;;;31.77;18.53;;;10.20;99.90;;;;;;5071774;28;20283;-72
2022/01/18 11:34:55;;;;;;;37.87;20.30;;;9.70;99.90;;;;;;5066751;28;20224;-73
2022/01/18 11:37:41;;;;;;;33.07;20.10;;;9.60;99.90;;;;;;5071748;28;20200;-73
2022/01/18 11:40:12;;;;;;;33.20;18.03;;;9.50;99.90;;;;;;5072161;28;20185;-73
2022/01/18 11:42:46;;;;;;;30.60;17.67;;;9.80;99.90;;;;;;5069206;28;20221;-76
2022/01/18 11:45:46;;;;;;;28.43;16.37;;;9.80;99.90;;;;;;5067209;28;20198;-73
2022/01/18 11:48:23;;;;;;;30.97;16.50;;;9.80;99.90;;;;;;5072191;28;20197;-73
2022/01/18 11:51:00;;;;;;;27.40;15.80;;;10.40;99.90;;;;;;5079898;28;20218;-73
2022/01/18 11:53:44;;;;;;;26.93;14.37;;;10.20;99.90;;;;;;5089936;28;20216;-72
2022/01/18 11:56:16;;;;;;;23.47;14.77;;;10.10;99.90;;;;;;5081641;28;20213;-73
2022/01/18 11:59:05;;;;;;;24.30;14.90;;;9.80;99.90;;;;;;5075246;28;20209;-73
2022/01/18 12:01:50;;;;;;;21.80;13.30;;;10.10;99.90;;;;;;5130371;27;20543;-73
2022/01/18 12:04:57;;;;;;;23.97;13.97;;;10.50;99.90;;;;;;5129383;28;20230;-73
2022/01/18 12:07:56;;;;;;;24.37;13.63;;;10.20;99.90;;;;;;5121079;28;20569;-73
2022/01/18 12:10:49;;;;;;;19.67;12.13;;;10.40;99.90;;;;;;5121044;28;20649;-72
2022/01/18 12:13:28;;;;;;;20.33;13.13;;;10.50;99.90;;;;;;5122404;28;20226;-72
2022/01/18 12:15:58;;;;;;;20.67;11.40;;;11.10;99.90;;;;;;5127309;28;20195;-73
2022/01/18 12:18:30;;;;;;;20.63;11.37;;;11.90;99.90;;;;;;5121108;28;20191;-74
2022/01/18 12:20:59;;;;;;;22.67;12.87;;;12.50;99.90;;;;;;5128875;28;20210;-73
2022/01/18 12:23:29;;;;;;;25.47;15.07;;;11.70;99.90;;;;;;5128720;28;20222;-73
2022/01/18 12:26:00;;;;;;;23.80;14.93;;;11.80;99.90;;;;;;5124740;28;20195;-73
2022/01/18 12:29:20;;;;;;;25.27;15.00;;;11.70;99.90;;;;;;5120455;28;20200;-74
2022/01/18 12:32:22;;;;;;;27.43;13.80;;;11.30;99.90;;;;;;5127304;28;20584;-74
2022/01/18 12:34:54;;;;;;;25.90;14.17;;;10.70;99.90;;;;;;5121236;28;20212;-73
2022/01/18 12:37:54;;;;;;;26.53;13.97;;;10.60;99.90;;;;;;5121656;28;20206;-73
2022/01/18 12:40:32;;;;;;;21.70;13.30;;;10.60;99.90;;;;;;5123782;28;20211;-74
2022/01/18 12:45:55;;;;;;;23.47;13.17;;;10.50;99.90;;;;;;5125035;28;20555;-73
2022/01/18 12:48:24;;;;;;;22.33;13.53;;;10.30;99.90;;;;;;5126105;28;20191;-74
2022/01/18 12:50:56;;;;;;;22.37;12.63;;;10.50;99.90;;;;;;5113264;28;20661;-74
2022/01/18 12:53:33;;;;;;;21.47;13.10;;;10.80;99.90;;;;;;5124398;28;20557;-74
2022/01/18 12:56:02;;;;;;;25.57;13.67;;;10.70;99.90;;;;;;5127463;28;20199;-73
2022/01/18 12:58:31;;;;;;;20.70;13.50;;;10.70;99.90;;;;;;5127907;28;20192;-73
2022/01/18 13:01:02;;;;;;;25.57;13.93;;;10.60;99.90;;;;;;5119791;28;20207;-73
2022/01/18 13:03:33;;;;;;;20.70;14.00;;;10.60;99.90;;;;;;5122038;28;20597;-73
2022/01/18 13:06:03;;;;;;;22.93;14.53;;;10.40;99.90;;;;;;5119674;28;20203;-73
2022/01/18 13:08:44;;;;;;;23.70;14.10;;;10.40;99.90;;;;;;5127335;28;20192;-74
2022/01/18 13:11:30;;;;;;;22.77;14.03;;;10.20;99.90;;;;;;5113366;28;20192;-73
2022/01/18 13:14:03;;;;;;;22.57;14.63;;;10.10;99.90;;;;;;5102420;28;20215;-74
2022/01/18 13:25:09;;;;;;;27.70;14.07;;;9.90;99.90;;;;;;5109531;28;20217;-73
2022/01/18 13:27:40;;;;;;;25.07;13.27;;;9.90;99.90;;;;;;5113336;28;20564;-73
2022/01/18 13:30:17;;;;;;;29.47;15.70;;;9.90;99.90;;;;;;5113969;28;20192;-73
2022/01/18 13:32:45;;;;;;;25.73;12.10;;;9.90;99.90;;;;;;5109774;28;20200;-73
2022/01/18 13:35:15;;;;;;;17.60;10.53;;;9.90;99.90;;;;;;5113797;28;20193;-73
2022/01/18 13:37:44;;;;;;;21.23;11.40;;;9.80;99.90;;;;;;5114228;28;20547;-73
2022/01/18 13:40:14;;;;;;;22.53;10.07;;;9.60;99.90;;;;;;5113298;28;20196;-74
2022/01/18 13:42:47;;;;;;;18.77;10.00;;;9.40;99.90;;;;;;5113150;28;20211;-73
2022/01/18 13:45:19;;;;;;;21.93;9.93;;;9.30;99.90;;;;;;5113699;28;20666;-73
2022/01/18 13:47:50;;;;;;;21.80;11.03;;;9.30;99.90;;;;;;5113298;28;20202;-73
2022/01/18 13:50:46;;;;;;;18.53;10.63;;;9.30;99.90;;;;;;5107235;28;20197;-73
2022/01/18 13:53:18;;;;;;;17.80;9.33;;;9.40;99.90;;;;;;5100123;28;20218;-74
2022/01/18 13:55:49;;;;;;;17.60;9.50;;;9.40;99.90;;;;;;5113608;28;20211;-73
2022/01/18 13:58:25;;;;;;;19.30;9.47;;;9.20;99.90;;;;;;5113099;28;20200;-73
2022/01/18 14:01:04;;;;;;;16.40;8.23;;;9.20;99.90;;;;;;5109939;28;20231;-73
2022/01/18 14:04:14;;;;;;;19.63;7.80;;;9.20;99.90;;;;;;5092583;28;20224;-72
2022/01/18 14:06:44;;;;;;;16.87;6.50;;;9.30;99.90;;;;;;5113144;28;20200;-73
2022/01/18 14:09:14;;;;;;;21.50;7.53;;;9.20;99.90;;;;;;5114638;28;20192;-72